createdAt,value
2016-12-13T00:00:23.550Z,0
2016-12-13T00:01:24.255Z,0
2016-12-13T00:02:23.494Z,0
2016-12-13T00:03:23.547Z,0
2016-12-13T00:04:23.510Z,0
2016-12-13T00:05:23.463Z,0
2016-12-13T00:06:23.584Z,0
2016-12-13T00:07:23.591Z,0
2016-12-13T00:08:23.525Z,0
2016-12-13T00:09:23.534Z,0
2016-12-13T00:10:26.353Z,0
2016-12-13T00:11:23.605Z,0
2016-12-13T00:12:23.490Z,0
2016-12-13T00:13:23.572Z,0
2016-12-13T00:14:23.568Z,0
2016-12-13T00:15:23.561Z,0
2016-12-13T00:16:23.566Z,0
2016-12-13T00:17:23.548Z,0
2016-12-13T00:18:23.590Z,0
2016-12-13T00:19:23.496Z,0
2016-12-13T00:20:23.573Z,0
2016-12-13T00:21:23.678Z,0
2016-12-13T00:22:23.546Z,0
2016-12-13T00:23:23.471Z,0
2016-12-13T00:24:23.535Z,0
2016-12-13T00:25:23.745Z,0
2016-12-13T00:26:23.599Z,0
2016-12-13T00:27:23.608Z,0
2016-12-13T00:28:23.651Z,0
2016-12-13T00:29:23.520Z,0
2016-12-13T00:30:23.619Z,0
2016-12-13T00:31:23.666Z,0
2016-12-13T00:32:23.638Z,0
2016-12-13T00:33:23.511Z,0
2016-12-13T00:34:23.572Z,0
2016-12-13T00:35:23.735Z,0
2016-12-13T00:36:23.580Z,0
2016-12-13T00:37:24.799Z,0
2016-12-13T00:38:23.598Z,0
2016-12-13T00:39:23.730Z,0
2016-12-13T00:40:23.642Z,0
2016-12-13T00:41:23.513Z,0
2016-12-13T00:42:23.537Z,0
2016-12-13T00:43:23.601Z,0
2016-12-13T00:44:23.621Z,0
2016-12-13T00:45:23.743Z,0
2016-12-13T00:46:23.691Z,0
2016-12-13T00:47:23.732Z,0
2016-12-13T00:48:23.683Z,0
2016-12-13T00:49:23.685Z,0
2016-12-13T00:50:23.639Z,0
2016-12-13T00:51:23.639Z,0
2016-12-13T00:52:23.616Z,0
2016-12-13T00:53:23.712Z,0
2016-12-13T00:54:24.072Z,0
2016-12-13T00:55:23.722Z,0
2016-12-13T00:56:23.691Z,0
2016-12-13T00:57:23.811Z,0
2016-12-13T00:58:23.565Z,0
2016-12-13T00:59:23.814Z,0
2016-12-13T01:00:23.654Z,0
2016-12-13T01:01:23.793Z,0
2016-12-13T01:02:23.560Z,0
2016-12-13T01:03:23.607Z,0
2016-12-13T01:04:23.563Z,0
2016-12-13T01:05:23.830Z,0
2016-12-13T01:06:23.593Z,0
2016-12-13T01:07:23.643Z,0
2016-12-13T01:08:23.587Z,0
2016-12-13T01:09:23.610Z,0
2016-12-13T01:10:23.694Z,0
2016-12-13T01:11:23.871Z,0
2016-12-13T01:12:23.626Z,0
2016-12-13T01:13:23.642Z,0
2016-12-13T01:14:23.615Z,0
2016-12-13T01:15:23.742Z,0
2016-12-13T01:16:23.657Z,0
2016-12-13T01:17:23.597Z,0
2016-12-13T01:18:23.590Z,0
2016-12-13T01:19:23.637Z,0
2016-12-13T01:20:23.666Z,0
2016-12-13T01:21:23.720Z,0
2016-12-13T01:22:23.648Z,0
2016-12-13T01:23:23.594Z,0
2016-12-13T01:24:23.593Z,0
2016-12-13T01:25:23.774Z,0
2016-12-13T01:26:23.576Z,0
2016-12-13T01:27:23.654Z,0
2016-12-13T01:28:24.312Z,0
2016-12-13T01:29:23.681Z,0
2016-12-13T01:30:23.606Z,0
2016-12-13T01:31:23.567Z,0
2016-12-13T01:32:23.653Z,0
2016-12-13T01:33:23.906Z,0
2016-12-13T01:34:23.657Z,0
2016-12-13T01:35:23.666Z,0
2016-12-13T01:36:23.593Z,0
2016-12-13T01:37:23.605Z,0
2016-12-13T01:38:23.690Z,0
2016-12-13T01:39:23.561Z,0
2016-12-13T01:40:23.673Z,0
2016-12-13T01:41:24.191Z,0
2016-12-13T01:42:23.649Z,0
2016-12-13T01:43:24.038Z,0
2016-12-13T01:44:23.697Z,0
2016-12-13T01:45:23.775Z,0
2016-12-13T01:46:23.710Z,0
2016-12-13T01:47:23.637Z,0
2016-12-13T01:48:23.625Z,0
2016-12-13T01:49:23.595Z,0
2016-12-13T01:50:23.681Z,0
2016-12-13T01:51:23.603Z,0
2016-12-13T01:52:23.599Z,0
2016-12-13T01:53:23.723Z,0
2016-12-13T01:54:23.626Z,0
2016-12-13T01:55:23.635Z,0
2016-12-13T01:56:23.675Z,0
2016-12-13T01:57:23.627Z,0
2016-12-13T01:58:23.718Z,0
2016-12-13T01:59:23.636Z,0
2016-12-13T02:00:23.739Z,0
2016-12-13T02:01:23.614Z,0
2016-12-13T02:02:23.650Z,0
2016-12-13T02:03:23.574Z,0
2016-12-13T02:04:23.692Z,0
2016-12-13T02:05:23.645Z,0
2016-12-13T02:06:23.653Z,0
2016-12-13T02:07:23.674Z,0
2016-12-13T02:08:23.625Z,0
2016-12-13T02:09:23.600Z,0
2016-12-13T02:10:23.685Z,0
2016-12-13T02:11:23.658Z,0
2016-12-13T02:12:23.614Z,0
2016-12-13T02:13:23.611Z,0
2016-12-13T02:14:23.696Z,0
2016-12-13T02:15:23.616Z,0
2016-12-13T02:16:23.715Z,0
2016-12-13T02:17:23.612Z,0
2016-12-13T02:18:23.727Z,0
2016-12-13T02:19:23.682Z,0
2016-12-13T02:20:23.651Z,0
2016-12-13T02:21:23.652Z,0
2016-12-13T02:22:23.640Z,0
2016-12-13T02:23:23.601Z,0
2016-12-13T02:24:23.595Z,0
2016-12-13T02:25:23.640Z,0
2016-12-13T02:26:23.677Z,0
2016-12-13T02:27:23.883Z,0
2016-12-13T02:28:23.621Z,0
2016-12-13T02:29:23.667Z,0
2016-12-13T02:30:23.726Z,0
2016-12-13T02:31:23.617Z,0
2016-12-13T02:32:23.622Z,0
2016-12-13T02:33:23.630Z,0
2016-12-13T02:34:23.687Z,0
2016-12-13T02:35:23.839Z,0
2016-12-13T02:36:23.590Z,0
2016-12-13T02:37:23.665Z,0
2016-12-13T02:38:23.614Z,0
2016-12-13T02:39:23.667Z,0
2016-12-13T02:40:23.728Z,0
2016-12-13T02:41:23.683Z,0
2016-12-13T02:42:23.665Z,0
2016-12-13T02:43:24.212Z,0
2016-12-13T02:44:23.646Z,0
2016-12-13T02:45:23.726Z,0
2016-12-13T02:46:23.728Z,0
2016-12-13T02:47:23.696Z,0
2016-12-13T02:48:23.646Z,0
2016-12-13T02:49:23.656Z,0
2016-12-13T02:50:23.807Z,0
2016-12-13T02:51:23.648Z,0
2016-12-13T02:52:23.695Z,0
2016-12-13T02:53:23.659Z,0
2016-12-13T02:54:23.623Z,0
2016-12-13T02:55:23.753Z,0
2016-12-13T02:56:25.640Z,0
2016-12-13T02:57:23.603Z,0
2016-12-13T02:58:23.688Z,0
2016-12-13T02:59:23.674Z,0
2016-12-13T03:00:23.715Z,0
2016-12-13T03:01:23.676Z,0
2016-12-13T03:02:23.717Z,0
2016-12-13T03:03:23.658Z,0
2016-12-13T03:04:23.666Z,0
2016-12-13T03:05:23.695Z,0
2016-12-13T03:06:23.676Z,0
2016-12-13T03:07:23.693Z,0
2016-12-13T03:08:23.645Z,0
2016-12-13T03:09:23.634Z,0
2016-12-13T03:10:23.797Z,0
2016-12-13T03:11:23.746Z,0
2016-12-13T03:12:23.732Z,0
2016-12-13T03:13:23.665Z,0
2016-12-13T03:14:23.736Z,0
2016-12-13T03:15:23.683Z,0
2016-12-13T03:16:23.737Z,0
2016-12-13T03:17:23.717Z,0
2016-12-13T03:18:23.779Z,0
2016-12-13T03:19:23.674Z,0
2016-12-13T03:20:23.740Z,0
2016-12-13T03:21:23.666Z,0
2016-12-13T03:22:23.732Z,0
2016-12-13T03:23:23.643Z,0
2016-12-13T03:24:23.734Z,0
2016-12-13T03:25:24.357Z,0
2016-12-13T03:26:23.687Z,0
2016-12-13T03:27:23.747Z,0
2016-12-13T03:28:23.665Z,0
2016-12-13T03:29:23.695Z,0
2016-12-13T03:30:23.666Z,0
2016-12-13T03:31:23.679Z,0
2016-12-13T03:32:23.728Z,0
2016-12-13T03:33:23.903Z,0
2016-12-13T03:34:23.708Z,0
2016-12-13T03:35:23.746Z,0
2016-12-13T03:36:23.679Z,0
2016-12-13T03:37:23.696Z,0
2016-12-13T03:38:23.749Z,0
2016-12-13T03:39:23.873Z,0
2016-12-13T03:40:23.741Z,0
2016-12-13T03:41:23.830Z,0
2016-12-13T03:42:23.769Z,0
2016-12-13T03:43:23.686Z,0
2016-12-13T03:44:23.797Z,0
2016-12-13T03:45:23.757Z,0
2016-12-13T03:46:23.679Z,0
2016-12-13T03:47:23.767Z,0
2016-12-13T03:48:23.732Z,0
2016-12-13T03:49:23.744Z,0
2016-12-13T03:50:23.789Z,0
2016-12-13T03:51:23.774Z,0
2016-12-13T03:52:23.747Z,0
2016-12-13T03:53:23.722Z,0
2016-12-13T03:57:51.624Z,0
2016-12-13T03:58:51.697Z,0
2016-12-13T03:59:51.592Z,0
2016-12-13T04:00:51.757Z,0
2016-12-13T04:01:51.655Z,0
2016-12-13T04:02:51.546Z,0
2016-12-13T04:03:51.587Z,0
2016-12-13T04:04:51.511Z,0
2016-12-13T04:05:51.583Z,0
2016-12-13T04:06:51.549Z,0
2016-12-13T04:07:52.716Z,0
2016-12-13T04:08:51.638Z,0
2016-12-13T04:09:51.505Z,0
2016-12-13T04:10:51.516Z,0
2016-12-13T04:11:51.584Z,0
2016-12-13T04:12:51.551Z,0
2016-12-13T04:13:51.514Z,0
2016-12-13T04:14:51.735Z,0
2016-12-13T04:15:51.641Z,0
2016-12-13T04:16:51.552Z,0
2016-12-13T04:17:51.679Z,0
2016-12-13T04:18:51.482Z,0
2016-12-13T04:19:51.674Z,0
2016-12-13T04:20:51.541Z,0
2016-12-13T04:21:51.593Z,0
2016-12-13T04:22:51.676Z,0
2016-12-13T04:23:51.657Z,0
2016-12-13T04:24:51.736Z,0
2016-12-13T04:25:51.649Z,0
2016-12-13T04:26:51.547Z,0
2016-12-13T04:27:51.676Z,0
2016-12-13T04:28:51.573Z,0
2016-12-13T04:29:51.683Z,0
2016-12-13T04:30:51.534Z,0
2016-12-13T04:31:51.645Z,0
2016-12-13T04:32:51.576Z,0
2016-12-13T04:33:51.763Z,0
2016-12-13T04:34:51.571Z,0
2016-12-13T04:35:51.650Z,0
2016-12-13T04:36:51.565Z,0
2016-12-13T04:37:51.683Z,0
2016-12-13T04:38:52.150Z,0
2016-12-13T04:39:51.693Z,0
2016-12-13T04:40:51.766Z,0
2016-12-13T04:41:51.620Z,0
2016-12-13T04:42:51.579Z,0
2016-12-13T04:43:51.636Z,0
2016-12-13T04:44:51.608Z,0
2016-12-13T04:45:51.568Z,0
2016-12-13T04:46:51.518Z,0
2016-12-13T04:47:51.615Z,0
2016-12-13T04:48:51.584Z,0
2016-12-13T04:49:51.686Z,0
2016-12-13T04:50:51.539Z,0
2016-12-13T04:52:26.488Z,0
2016-12-13T04:52:51.571Z,0
2016-12-13T04:53:51.646Z,0
2016-12-13T04:54:51.550Z,0
2016-12-13T04:55:51.643Z,0
2016-12-13T04:56:51.592Z,0
2016-12-13T04:57:51.651Z,0
2016-12-13T04:58:51.553Z,0
2016-12-13T04:59:51.622Z,0
2016-12-13T05:00:51.573Z,0
2016-12-13T05:01:51.734Z,0
2016-12-13T05:02:52.315Z,0
2016-12-13T05:03:51.633Z,0
2016-12-13T05:04:51.806Z,0
2016-12-13T05:05:51.665Z,0
2016-12-13T05:06:51.596Z,0
2016-12-13T05:07:51.648Z,0
2016-12-13T05:08:51.600Z,0
2016-12-13T05:09:51.710Z,0
2016-12-13T05:10:51.584Z,0
2016-12-13T05:11:51.614Z,0
2016-12-13T05:12:52.164Z,0
2016-12-13T05:13:51.715Z,0
2016-12-13T05:14:51.685Z,0
2016-12-13T05:15:51.639Z,0
2016-12-13T05:16:51.713Z,0
2016-12-13T05:17:51.635Z,0
2016-12-13T05:18:51.551Z,0
2016-12-13T05:19:51.605Z,0
2016-12-13T05:20:51.850Z,0
2016-12-13T05:21:51.705Z,0
2016-12-13T05:22:51.600Z,0
2016-12-13T05:23:51.668Z,0
2016-12-13T05:24:51.633Z,0
2016-12-13T05:25:51.656Z,0
2016-12-13T05:26:51.750Z,0
2016-12-13T05:27:51.750Z,0
2016-12-13T05:28:51.626Z,0
2016-12-13T05:29:51.671Z,0
2016-12-13T05:30:51.780Z,0
2016-12-13T05:31:51.678Z,0
2016-12-13T05:32:51.675Z,0
2016-12-13T05:33:51.759Z,0
2016-12-13T05:34:51.855Z,0
2016-12-13T05:35:51.694Z,0
2016-12-13T05:36:51.602Z,0
2016-12-13T05:37:51.664Z,0
2016-12-13T05:38:51.734Z,0
2016-12-13T05:39:51.763Z,0
2016-12-13T05:40:51.666Z,0
2016-12-13T05:41:51.705Z,0
2016-12-13T05:42:51.686Z,0
2016-12-13T05:43:51.754Z,0
2016-12-13T05:44:51.659Z,0
2016-12-13T05:45:51.687Z,0
2016-12-13T05:46:51.712Z,0
2016-12-13T05:47:51.717Z,0
2016-12-13T05:48:51.760Z,0
2016-12-13T05:49:51.743Z,0
2016-12-13T05:50:51.774Z,0
2016-12-13T05:51:51.728Z,0
2016-12-13T05:52:51.704Z,0
2016-12-13T05:53:51.758Z,0
2016-12-13T05:54:51.667Z,0
2016-12-13T05:55:51.823Z,0
2016-12-13T05:56:51.669Z,0
2016-12-13T05:57:51.755Z,0
2016-12-13T05:58:51.683Z,0
2016-12-13T05:59:52.948Z,0
2016-12-13T06:00:51.635Z,0
2016-12-13T06:01:51.759Z,0
2016-12-13T06:02:51.810Z,0
2016-12-13T06:03:51.746Z,0
2016-12-13T06:04:51.683Z,0
2016-12-13T06:05:51.867Z,0
2016-12-13T06:06:51.832Z,0
2016-12-13T06:07:51.760Z,0
2016-12-13T06:08:51.731Z,0
2016-12-13T06:09:51.740Z,0
2016-12-13T06:10:51.710Z,0
2016-12-13T06:11:51.739Z,0
2016-12-13T06:12:51.797Z,0
2016-12-13T06:13:51.805Z,0
2016-12-13T06:14:51.789Z,0
2016-12-13T06:15:51.819Z,0
2016-12-13T06:16:52.198Z,0
2016-12-13T06:17:52.584Z,0
2016-12-13T06:18:52.222Z,0
2016-12-13T06:19:51.802Z,0
2016-12-13T06:20:53.605Z,0
2016-12-13T06:21:52.483Z,0
2016-12-13T06:22:52.493Z,0
2016-12-13T06:23:55.060Z,0
2016-12-13T06:24:51.771Z,0
2016-12-13T06:25:52.524Z,0
2016-12-13T06:26:52.724Z,0
2016-12-13T06:27:51.818Z,0
2016-12-13T06:28:51.770Z,0
2016-12-13T06:29:52.400Z,0
2016-12-13T06:30:51.894Z,0
2016-12-13T06:31:51.760Z,0
2016-12-13T06:32:51.802Z,0
2016-12-13T06:33:51.883Z,0
2016-12-13T06:34:51.775Z,0
2016-12-13T06:35:51.784Z,0
2016-12-13T06:36:51.745Z,0
2016-12-13T06:37:51.902Z,0
2016-12-13T06:38:51.862Z,0
2016-12-13T06:39:51.829Z,0
2016-12-13T06:40:51.822Z,0
2016-12-13T06:41:51.845Z,0
2016-12-13T06:42:51.781Z,0
2016-12-13T06:43:51.834Z,0
2016-12-13T06:44:51.799Z,0
2016-12-13T06:45:51.656Z,0
2016-12-13T06:46:51.735Z,0
2016-12-13T06:47:51.883Z,0
2016-12-13T06:48:51.734Z,0
2016-12-13T06:49:51.747Z,0
2016-12-13T06:50:51.689Z,0
2016-12-13T06:51:51.869Z,0
2016-12-13T06:52:51.823Z,0
2016-12-13T06:53:51.862Z,0
2016-12-13T06:54:51.719Z,0
2016-12-13T06:55:51.771Z,0
2016-12-13T06:56:51.826Z,0
2016-12-13T06:57:51.865Z,0
2016-12-13T06:58:51.842Z,0
2016-12-13T06:59:51.778Z,0
2016-12-13T07:00:51.734Z,0
2016-12-13T07:01:51.794Z,0
2016-12-13T07:02:51.897Z,0
2016-12-13T07:03:51.848Z,0
2016-12-13T07:04:51.894Z,0
2016-12-13T07:05:51.845Z,4
2016-12-13T07:06:51.977Z,4
2016-12-13T07:07:52.441Z,4
2016-12-13T07:08:51.960Z,0
2016-12-13T07:09:51.748Z,4
2016-12-13T07:10:51.859Z,4
2016-12-13T07:11:51.854Z,8
2016-12-13T07:12:51.919Z,4
2016-12-13T07:13:51.904Z,8
2016-12-13T07:14:51.836Z,4
2016-12-13T07:15:51.816Z,8
2016-12-13T07:16:51.968Z,8
2016-12-13T07:17:51.793Z,8
2016-12-13T07:18:51.956Z,12
2016-12-13T07:19:51.898Z,12
2016-12-13T07:20:51.936Z,12
2016-12-13T07:21:51.864Z,12
2016-12-13T07:22:51.800Z,16
2016-12-13T07:23:51.785Z,16
2016-12-13T07:24:51.929Z,16
2016-12-13T07:25:51.815Z,20
2016-12-13T07:26:51.936Z,24
2016-12-13T07:27:52.080Z,24
2016-12-13T07:28:51.978Z,28
2016-12-13T07:29:51.890Z,32
2016-12-13T07:30:51.886Z,32
2016-12-13T07:31:51.954Z,32
2016-12-13T07:32:51.951Z,36
2016-12-13T07:33:51.907Z,36
2016-12-13T07:34:51.922Z,40
2016-12-13T07:35:52.015Z,44
2016-12-13T07:36:51.816Z,48
2016-12-13T07:37:51.826Z,52
2016-12-13T07:38:51.984Z,56
2016-12-13T07:39:51.794Z,60
2016-12-13T07:40:51.855Z,68
2016-12-13T07:41:51.799Z,68
2016-12-13T07:42:51.970Z,68
2016-12-13T07:43:51.873Z,68
2016-12-13T07:44:51.794Z,68
2016-12-13T07:45:51.814Z,72
2016-12-13T07:46:51.946Z,72
2016-12-13T07:47:51.884Z,76
2016-12-13T07:48:51.862Z,76
2016-12-13T07:49:51.856Z,80
2016-12-13T07:50:51.820Z,88
2016-12-13T07:51:51.813Z,92
2016-12-13T07:52:52.166Z,100
2016-12-13T07:53:51.837Z,112
2016-12-13T07:54:52.082Z,120
2016-12-13T07:55:52.099Z,120
2016-12-13T07:56:52.047Z,120
2016-12-13T07:57:51.958Z,124
2016-12-13T07:58:51.919Z,132
2016-12-13T07:59:51.902Z,140
2016-12-13T08:00:51.882Z,160
2016-12-13T08:01:51.834Z,176
2016-12-13T08:02:51.940Z,196
2016-12-13T08:03:51.906Z,212
2016-12-13T08:04:51.883Z,236
2016-12-13T08:05:51.938Z,264
2016-12-13T08:06:51.910Z,280
2016-12-13T08:07:51.923Z,284
2016-12-13T08:08:51.989Z,280
2016-12-13T08:09:51.885Z,276
2016-12-13T08:10:51.958Z,268
2016-12-13T08:11:51.848Z,260
2016-12-13T08:12:51.836Z,268
2016-12-13T08:13:51.925Z,268
2016-12-13T08:14:51.923Z,280
2016-12-13T08:15:51.797Z,300
2016-12-13T08:16:51.931Z,320
2016-12-13T08:17:51.926Z,340
2016-12-13T08:18:51.846Z,356
2016-12-13T08:19:51.826Z,360
2016-12-13T08:20:51.951Z,364
2016-12-13T08:21:51.899Z,360
2016-12-13T08:22:51.884Z,356
2016-12-13T08:23:51.963Z,336
2016-12-13T08:24:51.983Z,348
2016-12-13T08:25:51.953Z,352
2016-12-13T08:26:51.901Z,348
2016-12-13T08:27:52.036Z,380
2016-12-13T08:28:51.944Z,404
2016-12-13T08:29:51.971Z,432
2016-12-13T08:30:51.878Z,488
2016-12-13T08:31:51.949Z,532
2016-12-13T08:32:52.004Z,544
2016-12-13T08:33:52.047Z,552
2016-12-13T08:34:52.053Z,584
2016-12-13T08:35:51.833Z,604
2016-12-13T08:36:52.012Z,624
2016-12-13T08:37:51.859Z,624
2016-12-13T08:38:51.874Z,604
2016-12-13T08:39:52.077Z,628
2016-12-13T08:40:52.068Z,648
2016-12-13T08:41:52.004Z,660
2016-12-13T08:42:51.961Z,656
2016-12-13T08:43:51.890Z,652
2016-12-13T08:44:51.976Z,612
2016-12-13T08:45:51.949Z,592
2016-12-13T08:46:52.049Z,616
2016-12-13T08:47:51.997Z,644
2016-12-13T08:48:51.990Z,668
2016-12-13T08:49:51.954Z,656
2016-12-13T08:50:52.117Z,632
2016-12-13T08:51:52.013Z,564
2016-12-13T08:52:51.953Z,520
2016-12-13T08:53:51.884Z,492
2016-12-13T08:54:52.046Z,464
2016-12-13T08:55:51.914Z,448
2016-12-13T08:56:51.990Z,432
2016-12-13T08:57:51.961Z,416
2016-12-13T08:58:52.069Z,444
2016-12-13T08:59:52.091Z,468
2016-12-13T09:00:52.173Z,496
2016-12-13T09:01:52.064Z,512
2016-12-13T09:02:52.087Z,544
2016-12-13T09:03:51.998Z,548
2016-12-13T09:04:52.052Z,548
2016-12-13T09:05:52.036Z,568
2016-12-13T09:06:51.969Z,596
2016-12-13T09:07:51.991Z,548
2016-12-13T09:08:51.924Z,504
2016-12-13T09:09:51.985Z,568
2016-12-13T09:10:52.109Z,624
2016-12-13T09:11:52.054Z,640
2016-12-13T09:12:52.012Z,648
2016-12-13T09:13:51.982Z,676
2016-12-13T09:14:52.024Z,724
2016-12-13T09:15:51.969Z,764
2016-12-13T09:16:52.677Z,736
2016-12-13T09:17:51.980Z,704
2016-12-13T09:18:51.924Z,776
2016-12-13T09:19:52.014Z,788
2016-12-13T09:20:52.087Z,748
2016-12-13T09:21:51.974Z,684
2016-12-13T09:22:52.062Z,588
2016-12-13T09:23:52.001Z,584
2016-12-13T09:24:52.098Z,812
2016-12-13T09:25:52.017Z,784
2016-12-13T09:26:52.056Z,804
2016-12-13T09:27:52.182Z,736
2016-12-13T09:28:52.114Z,792
2016-12-13T09:29:52.718Z,680
2016-12-13T09:30:52.173Z,628
2016-12-13T09:31:51.968Z,584
2016-12-13T09:32:52.048Z,600
2016-12-13T09:33:52.071Z,628
2016-12-13T09:34:52.090Z,656
2016-12-13T09:35:52.101Z,736
2016-12-13T09:36:52.189Z,788
2016-12-13T09:37:52.108Z,728
2016-12-13T09:38:52.119Z,736
2016-12-13T09:39:52.173Z,804
2016-12-13T09:40:52.192Z,752
2016-12-13T09:41:52.008Z,840
2016-12-13T09:42:52.056Z,832
2016-12-13T09:43:52.153Z,848
2016-12-13T09:44:51.984Z,852
2016-12-13T09:45:52.999Z,756
2016-12-13T09:46:52.132Z,784
2016-12-13T09:47:52.078Z,828
2016-12-13T09:48:52.133Z,864
2016-12-13T09:49:51.972Z,904
2016-12-13T09:50:52.120Z,1016
2016-12-13T09:51:52.015Z,1172
2016-12-13T09:52:52.102Z,1328
2016-12-13T09:53:52.124Z,1576
2016-12-13T09:54:52.176Z,1888
2016-12-13T09:56:22.111Z,1880
2016-12-13T09:56:52.033Z,1800
2016-12-13T09:57:52.185Z,1844
2016-12-13T09:58:52.002Z,2116
2016-12-13T09:59:52.639Z,2340
2016-12-13T10:00:52.116Z,2408
2016-12-13T10:01:52.131Z,2436
2016-12-13T10:02:53.088Z,2596
2016-12-13T10:03:52.307Z,2796
2016-12-13T10:04:52.121Z,3072
2016-12-13T10:05:52.083Z,3232
2016-12-13T10:06:52.080Z,3064
2016-12-13T10:07:52.175Z,2924
2016-12-13T10:08:52.292Z,2972
2016-12-13T10:09:52.099Z,3080
2016-12-13T10:10:52.104Z,3120
2016-12-13T10:11:52.095Z,3212
2016-12-13T10:12:52.055Z,3296
2016-12-13T10:13:52.049Z,3352
2016-12-13T10:14:52.731Z,3624
2016-12-13T10:15:52.088Z,3320
2016-12-13T10:16:52.184Z,3096
2016-12-13T10:17:52.014Z,2784
2016-12-13T10:18:52.154Z,2292
2016-12-13T10:19:52.091Z,1980
2016-12-13T10:20:52.036Z,1736
2016-12-13T10:21:52.004Z,1764
2016-12-13T10:22:52.113Z,1744
2016-12-13T10:23:52.072Z,1696
2016-12-13T10:24:52.152Z,1544
2016-12-13T10:25:52.115Z,1628
2016-12-13T10:26:52.178Z,1856
2016-12-13T10:27:52.175Z,1980
2016-12-13T10:28:52.062Z,2092
2016-12-13T10:29:52.025Z,2240
2016-12-13T10:30:52.168Z,2420
2016-12-13T10:31:52.034Z,2384
2016-12-13T10:32:52.152Z,2452
2016-12-13T10:33:52.188Z,2584
2016-12-13T10:34:52.195Z,2504
2016-12-13T10:35:52.235Z,2580
2016-12-13T10:36:52.099Z,2440
2016-12-13T10:37:52.125Z,2492
2016-12-13T10:38:52.150Z,2396
2016-12-13T10:39:52.037Z,2252
2016-12-13T10:40:52.175Z,2160
2016-12-13T10:41:52.472Z,2356
2016-12-13T10:42:52.324Z,2532
2016-12-13T10:43:52.102Z,2928
2016-12-13T10:44:52.375Z,2636
2016-12-13T10:45:52.059Z,2484
2016-12-13T10:46:52.120Z,2292
2016-12-13T10:47:52.141Z,2284
2016-12-13T10:48:52.037Z,2220
2016-12-13T10:49:52.080Z,2184
2016-12-13T10:50:52.139Z,2160
2016-12-13T10:51:52.072Z,1908
2016-12-13T10:52:52.237Z,1744
2016-12-13T10:53:52.217Z,1684
2016-12-13T10:54:52.121Z,1628
2016-12-13T10:55:52.187Z,1672
2016-12-13T10:56:52.246Z,1584
2016-12-13T10:57:52.143Z,1516
2016-12-13T10:58:52.202Z,1536
2016-12-13T10:59:52.723Z,1324
2016-12-13T11:00:52.269Z,1440
2016-12-13T11:01:52.470Z,1464
2016-12-13T11:02:52.315Z,1460
2016-12-13T11:03:52.277Z,1544
2016-12-13T11:04:52.208Z,1576
2016-12-13T11:05:52.252Z,1636
2016-12-13T11:06:52.268Z,1660
2016-12-13T11:07:52.295Z,1792
2016-12-13T11:08:52.166Z,2032
2016-12-13T11:09:52.166Z,2252
2016-12-13T11:10:52.209Z,2432
2016-12-13T11:11:52.118Z,2468
2016-12-13T11:12:52.225Z,2628
2016-12-13T11:13:52.184Z,2560
2016-12-13T11:14:52.237Z,2660
2016-12-13T11:15:52.211Z,2712
2016-12-13T11:16:52.158Z,2784
2016-12-13T11:17:52.212Z,2604
2016-12-13T11:18:52.122Z,2680
2016-12-13T11:19:52.260Z,2716
2016-12-13T11:20:52.351Z,2456
2016-12-13T11:21:52.236Z,2304
2016-12-13T11:22:52.238Z,2252
2016-12-13T11:24:56.953Z,2012
2016-12-13T11:25:08.633Z,2104
2016-12-13T11:26:08.416Z,2332
2016-12-13T11:27:08.250Z,2676
2016-12-13T11:28:08.240Z,2772
2016-12-13T11:29:08.386Z,2732
2016-12-13T11:30:08.208Z,2948
2016-12-13T11:31:08.316Z,3200
2016-12-13T11:32:08.273Z,3232
2016-12-13T11:33:08.371Z,3252
2016-12-13T11:34:08.163Z,3388
2016-12-13T11:35:08.302Z,3396
2016-12-13T11:36:08.229Z,3288
2016-12-13T11:37:08.240Z,3228
2016-12-13T11:38:08.398Z,3124
2016-12-13T11:39:08.164Z,3220
2016-12-13T11:40:08.323Z,3356
2016-12-13T11:41:08.329Z,3420
2016-12-13T11:42:08.358Z,3440
2016-12-13T11:43:08.301Z,3560
2016-12-13T11:44:08.315Z,4028
2016-12-13T11:45:08.194Z,4528
2016-12-13T11:46:08.269Z,4792
2016-12-13T11:47:08.215Z,4828
2016-12-13T11:48:08.265Z,4532
2016-12-13T11:49:08.274Z,4108
2016-12-13T11:50:08.268Z,3756
2016-12-13T11:51:08.231Z,3528
2016-12-13T11:52:08.296Z,3488
2016-12-13T11:53:08.207Z,3552
2016-12-13T11:54:08.290Z,3736
2016-12-13T11:55:08.222Z,3828
2016-12-13T11:56:08.216Z,3984
2016-12-13T11:57:09.068Z,4192
2016-12-13T11:58:08.391Z,4308
2016-12-13T11:59:08.343Z,3988
2016-12-13T12:00:08.352Z,3400
2016-12-13T12:01:08.217Z,3056
2016-12-13T12:02:08.365Z,2832
2016-12-13T12:03:08.281Z,2700
2016-12-13T12:04:08.271Z,2748
2016-12-13T12:05:08.412Z,2868
2016-12-13T12:06:08.226Z,2948
2016-12-13T12:07:08.523Z,2908
2016-12-13T12:08:08.283Z,2828
2016-12-13T12:09:08.270Z,2780
2016-12-13T12:10:08.307Z,2732
2016-12-13T12:11:08.402Z,2904
2016-12-13T12:12:08.364Z,3184
2016-12-13T12:13:08.396Z,3656
2016-12-13T12:14:08.287Z,3748
2016-12-13T12:15:08.396Z,3336
2016-12-13T12:16:08.437Z,2916
2016-12-13T12:17:08.426Z,2872
2016-12-13T12:18:08.430Z,2992
2016-12-13T12:19:08.283Z,3036
2016-12-13T12:20:08.437Z,2800
2016-12-13T12:21:08.346Z,2616
2016-12-13T12:22:08.447Z,2416
2016-12-13T12:23:08.450Z,2336
2016-12-13T12:24:08.411Z,2508
2016-12-13T12:25:08.314Z,2696
2016-12-13T12:26:08.458Z,2752
2016-12-13T12:27:08.627Z,2768
2016-12-13T12:28:08.422Z,2960
2016-12-13T12:29:08.434Z,2952
2016-12-13T12:30:08.420Z,2740
2016-12-13T12:31:08.440Z,2700
2016-12-13T12:32:08.409Z,3220
2016-12-13T12:33:08.299Z,3104
2016-12-13T12:34:08.479Z,2572
2016-12-13T12:35:08.806Z,2840
2016-12-13T12:36:08.439Z,3188
2016-12-13T12:37:08.457Z,2896
2016-12-13T12:38:08.511Z,2640
2016-12-13T12:39:08.487Z,2752
2016-12-13T12:40:08.284Z,2832
2016-12-13T12:41:08.451Z,2612
2016-12-13T12:42:08.407Z,2564
2016-12-13T12:43:08.285Z,2584
2016-12-13T12:44:08.321Z,2604
2016-12-13T12:45:08.468Z,2576
2016-12-13T12:46:08.399Z,2648
2016-12-13T12:47:08.359Z,2412
2016-12-13T12:48:08.468Z,2460
2016-12-13T12:49:08.307Z,2232
2016-12-13T12:50:08.506Z,2436
2016-12-13T12:51:08.403Z,2408
2016-12-13T12:52:09.184Z,2296
2016-12-13T12:53:08.364Z,2352
2016-12-13T12:54:08.422Z,2444
2016-12-13T12:55:08.537Z,2192
2016-12-13T12:56:08.510Z,2176
2016-12-13T12:57:08.751Z,2400
2016-12-13T12:58:08.655Z,2372
2016-12-13T12:59:09.701Z,2208
2016-12-13T13:00:08.377Z,2316
2016-12-13T13:01:08.459Z,2644
2016-12-13T13:02:08.457Z,2492
2016-12-13T13:03:08.583Z,2364
2016-12-13T13:04:08.499Z,2684
2016-12-13T13:05:08.458Z,2556
2016-12-13T13:06:08.513Z,2168
2016-12-13T13:07:08.644Z,2256
2016-12-13T13:08:08.482Z,2312
2016-12-13T13:09:08.444Z,2412
2016-12-13T13:10:08.493Z,2556
2016-12-13T13:11:08.447Z,2452
2016-12-13T13:12:08.331Z,2516
2016-12-13T13:13:08.444Z,2832
2016-12-13T13:14:08.352Z,2948
2016-12-13T13:15:08.479Z,2564
2016-12-13T13:16:08.481Z,2632
2016-12-13T13:17:08.482Z,2720
2016-12-13T13:18:08.672Z,2524
2016-12-13T13:19:08.485Z,2356
2016-12-13T13:20:08.379Z,2416
2016-12-13T13:21:08.372Z,2620
2016-12-13T13:22:08.760Z,2460
2016-12-13T13:23:09.016Z,2376
2016-12-13T13:24:08.529Z,2480
2016-12-13T13:25:08.428Z,2460
2016-12-13T13:26:08.656Z,2384
2016-12-13T13:27:08.337Z,2576
2016-12-13T13:28:08.520Z,2632
2016-12-13T13:29:09.121Z,2564
2016-12-13T13:30:08.512Z,2604
2016-12-13T13:31:08.587Z,2728
2016-12-13T13:32:08.551Z,2572
2016-12-13T13:33:08.715Z,2588
2016-12-13T13:34:08.518Z,2572
2016-12-13T13:35:08.629Z,2156
2016-12-13T13:36:08.742Z,1924
2016-12-13T13:37:08.402Z,1816
2016-12-13T13:38:08.525Z,1772
2016-12-13T13:39:08.378Z,1812
2016-12-13T13:40:08.624Z,1764
2016-12-13T13:41:08.686Z,1736
2016-12-13T13:42:08.544Z,1668
2016-12-13T13:43:08.501Z,1652
2016-12-13T13:44:08.576Z,1796
2016-12-13T13:45:08.443Z,1932
2016-12-13T13:46:08.551Z,1772
2016-12-13T13:47:08.645Z,2036
2016-12-13T13:48:08.599Z,2320
2016-12-13T13:49:08.419Z,2156
2016-12-13T13:50:08.443Z,1904
2016-12-13T13:51:08.549Z,1648
2016-12-13T13:52:08.563Z,1480
2016-12-13T13:53:08.417Z,1468
2016-12-13T13:54:08.576Z,1512
2016-12-13T13:55:08.439Z,1560
2016-12-13T13:56:08.577Z,1504
2016-12-13T13:57:08.520Z,1560
2016-12-13T13:58:08.649Z,1612
2016-12-13T13:59:08.479Z,1512
2016-12-13T14:00:08.504Z,1536
2016-12-13T14:01:08.528Z,1460
2016-12-13T14:02:08.403Z,1396
2016-12-13T14:03:08.607Z,1456
2016-12-13T14:04:08.466Z,1484
2016-12-13T14:05:08.656Z,1448
2016-12-13T14:06:08.553Z,1424
2016-12-13T14:07:08.525Z,1384
2016-12-13T14:08:08.499Z,1300
2016-12-13T14:09:08.578Z,1296
2016-12-13T14:10:08.631Z,1348
2016-12-13T14:11:08.577Z,1332
2016-12-13T14:12:08.515Z,1196